Estación Meteorológica Peña el Pijo (Robertgarden) [ 09/23/17 05:50:28 CEST ]

Fecha Hora Presion(HPa) Temp (°C) Humedad % Rocio (°C) Viento ( m/s) Direccion Lluvia 1Hora(mm) Lluvia 24H(mm) LLuvia Total(mm)
2017-Jul-24 01:01:48 1013.800 19.9 26 -0.4         1437.96
2017-Jul-24 02:01:40 1013.800 17.9 29 -0.4         1437.96
2017-Jul-24 03:01:20 1013.400 16.9 32 0.0         1437.96
2017-Jul-24 04:01:21 1013.200 15.0 37 0.3         1437.96
2017-Jul-24 05:01:45 1012.900 13.4 44 1.3         1437.96
2017-Jul-24 06:01:54 1012.800 12.9 50 2.7         1437.96
2017-Jul-24 07:01:40 1013.100 13.6 49 3.1         1437.96
2017-Jul-24 08:01:44 1012.900 16.4 49 5.6         1437.96
2017-Jul-24 09:01:49 1013.100 23.5 40 9.1         1437.96
2017-Jul-24 10:01:43 1013.200 28.4 31 9.6         1437.96
2017-Jul-24 11:01:24 1013.000 31.4 24 8.2         1437.96
2017-Jul-24 12:01:34 1012.800 32.8 22 7.9         1437.96
2017-Jul-24 13:01:42 1012.600 34.4 19 7.2         1437.96
2017-Jul-24 14:01:48 1011.900 34.8 19 7.6         1437.96
2017-Jul-24 15:01:37 1011.800 35.9 18 7.5         1437.96
2017-Jul-24 16:01:41 1011.400 37.4 17 7.7         1437.96
2017-Jul-24 17:01:42 1011.000 37.5 17 7.8         1437.96
2017-Jul-24 18:01:49 1010.600 37.2 18 8.6         1437.96
2017-Jul-24 19:01:53 1010.600 35.4 18 7.1 0.1 NNW     1437.96
2017-Jul-24 20:01:47 1010.800 32.9 21 7.6         1437.96
2017-Jul-24 21:01:47 1010.900 28.9 26 7.2         1437.96
2017-Jul-24 22:01:55 1011.500 24.5 33 7.1         1437.96
2017-Jul-24 23:01:49 1012.300 21.3 40 7.2         1437.96

Temperatura Máxima:37°    Temperatura Mínima:12°
Presión Máxima:1013.800 Hpa    Presión Mínima:1010.600 Hpa


Volver